sensor_id;sensor_type;location;lat;lon;timestamp;temperature;humidity
25871;DHT22;13689;48.590;7.752;2023-03-12T00:01:26;5.70;56.50
25871;DHT22;13689;48.590;7.752;2023-03-12T00:03:52;5.70;56.60
25871;DHT22;13689;48.590;7.752;2023-03-12T00:06:19;5.60;56.60
25871;DHT22;13689;48.590;7.752;2023-03-12T00:08:46;5.60;57.20
25871;DHT22;13689;48.590;7.752;2023-03-12T00:11:17;5.60;56.70
25871;DHT22;13689;48.590;7.752;2023-03-12T00:13:43;5.60;56.70
25871;DHT22;13689;48.590;7.752;2023-03-12T00:16:12;5.60;56.70
25871;DHT22;13689;48.590;7.752;2023-03-12T00:18:38;5.60;56.80
25871;DHT22;13689;48.590;7.752;2023-03-12T00:21:04;5.60;56.80
25871;DHT22;13689;48.590;7.752;2023-03-12T00:23:30;5.60;56.70
25871;DHT22;13689;48.590;7.752;2023-03-12T00:26:06;5.50;56.70
25871;DHT22;13689;48.590;7.752;2023-03-12T00:28:32;5.60;56.70
25871;DHT22;13689;48.590;7.752;2023-03-12T00:30:59;5.50;56.70
25871;DHT22;13689;48.590;7.752;2023-03-12T00:33:26;5.50;56.70
25871;DHT22;13689;48.590;7.752;2023-03-12T00:35:53;5.50;56.70
25871;DHT22;13689;48.590;7.752;2023-03-12T00:38:19;5.50;56.70
25871;DHT22;13689;48.590;7.752;2023-03-12T00:40:45;5.50;56.70
25871;DHT22;13689;48.590;7.752;2023-03-12T00:43:10;5.50;56.80
25871;DHT22;13689;48.590;7.752;2023-03-12T00:45:36;5.50;56.80
25871;DHT22;13689;48.590;7.752;2023-03-12T00:48:02;5.40;56.80
25871;DHT22;13689;48.590;7.752;2023-03-12T00:50:28;5.40;56.90
25871;DHT22;13689;48.590;7.752;2023-03-12T00:52:53;5.40;57.00
25871;DHT22;13689;48.590;7.752;2023-03-12T00:55:19;5.40;57.00
25871;DHT22;13689;48.590;7.752;2023-03-12T00:57:44;5.40;57.00
25871;DHT22;13689;48.590;7.752;2023-03-12T01:00:11;5.50;57.10
25871;DHT22;13689;48.590;7.752;2023-03-12T01:02:38;5.50;57.10
25871;DHT22;13689;48.590;7.752;2023-03-12T01:05:04;5.50;57.00
25871;DHT22;13689;48.590;7.752;2023-03-12T01:07:30;5.50;57.00
25871;DHT22;13689;48.590;7.752;2023-03-12T01:09:56;5.50;57.00
25871;DHT22;13689;48.590;7.752;2023-03-12T01:12:21;5.50;57.00
25871;DHT22;13689;48.590;7.752;2023-03-12T01:14:47;5.60;57.00
25871;DHT22;13689;48.590;7.752;2023-03-12T01:17:13;5.60;57.00
25871;DHT22;13689;48.590;7.752;2023-03-12T01:19:39;5.60;57.00
25871;DHT22;13689;48.590;7.752;2023-03-12T01:22:04;5.60;57.00
25871;DHT22;13689;48.590;7.752;2023-03-12T01:24:30;5.70;57.00
25871;DHT22;13689;48.590;7.752;2023-03-12T01:26:55;5.70;57.00
25871;DHT22;13689;48.590;7.752;2023-03-12T01:29:21;5.70;57.00
25871;DHT22;13689;48.590;7.752;2023-03-12T01:31:47;5.70;57.00
25871;DHT22;13689;48.590;7.752;2023-03-12T01:34:13;5.80;57.10
25871;DHT22;13689;48.590;7.752;2023-03-12T01:36:38;5.80;57.10
25871;DHT22;13689;48.590;7.752;2023-03-12T01:39:04;5.80;57.00
25871;DHT22;13689;48.590;7.752;2023-03-12T01:41:31;5.80;57.00
25871;DHT22;13689;48.590;7.752;2023-03-12T01:43:57;5.80;57.10
25871;DHT22;13689;48.590;7.752;2023-03-12T01:46:36;5.70;57.10
25871;DHT22;13689;48.590;7.752;2023-03-12T01:51:38;5.50;57.50
25871;DHT22;13689;48.590;7.752;2023-03-12T01:54:11;5.60;57.50
25871;DHT22;13689;48.590;7.752;2023-03-12T01:56:38;5.60;57.50
25871;DHT22;13689;48.590;7.752;2023-03-12T01:59:19;5.70;57.30
25871;DHT22;13689;48.590;7.752;2023-03-12T02:01:46;5.60;57.60
25871;DHT22;13689;48.590;7.752;2023-03-12T02:04:13;5.60;57.80
25871;DHT22;13689;48.590;7.752;2023-03-12T02:06:49;5.70;57.70
25871;DHT22;13689;48.590;7.752;2023-03-12T02:09:16;5.70;57.60
25871;DHT22;13689;48.590;7.752;2023-03-12T02:11:44;5.90;57.60
25871;DHT22;13689;48.590;7.752;2023-03-12T02:14:10;5.80;57.50
25871;DHT22;13689;48.590;7.752;2023-03-12T02:16:36;5.80;57.40
25871;DHT22;13689;48.590;7.752;2023-03-12T02:19:03;5.80;57.60
25871;DHT22;13689;48.590;7.752;2023-03-12T02:21:32;5.90;57.60
25871;DHT22;13689;48.590;7.752;2023-03-12T02:24:25;5.90;57.60
25871;DHT22;13689;48.590;7.752;2023-03-12T02:26:52;5.90;57.70
25871;DHT22;13689;48.590;7.752;2023-03-12T02:29:18;5.90;57.80
25871;DHT22;13689;48.590;7.752;2023-03-12T02:31:49;5.80;57.70
25871;DHT22;13689;48.590;7.752;2023-03-12T02:34:16;5.70;57.90
25871;DHT22;13689;48.590;7.752;2023-03-12T02:36:42;5.70;58.10
25871;DHT22;13689;48.590;7.752;2023-03-12T02:39:10;5.70;58.00
25871;DHT22;13689;48.590;7.752;2023-03-12T02:41:58;5.70;58.00
25871;DHT22;13689;48.590;7.752;2023-03-12T02:44:32;5.60;58.10
25871;DHT22;13689;48.590;7.752;2023-03-12T02:46:59;5.50;58.40
25871;DHT22;13689;48.590;7.752;2023-03-12T02:49:28;5.60;58.60
25871;DHT22;13689;48.590;7.752;2023-03-12T02:51:54;5.60;58.70
25871;DHT22;13689;48.590;7.752;2023-03-12T02:54:21;5.60;58.50
25871;DHT22;13689;48.590;7.752;2023-03-12T02:56:47;5.70;58.60
25871;DHT22;13689;48.590;7.752;2023-03-12T02:59:14;5.70;58.70
25871;DHT22;13689;48.590;7.752;2023-03-12T03:01:40;5.80;58.70
25871;DHT22;13689;48.590;7.752;2023-03-12T03:04:08;5.80;58.70
25871;DHT22;13689;48.590;7.752;2023-03-12T03:06:39;5.90;58.80
25871;DHT22;13689;48.590;7.752;2023-03-12T03:09:06;5.90;58.80
25871;DHT22;13689;48.590;7.752;2023-03-12T03:11:31;5.90;58.90
25871;DHT22;13689;48.590;7.752;2023-03-12T03:13:57;5.90;59.10
25871;DHT22;13689;48.590;7.752;2023-03-12T03:16:23;5.90;59.20
25871;DHT22;13689;48.590;7.752;2023-03-12T03:18:49;5.80;59.30
25871;DHT22;13689;48.590;7.752;2023-03-12T03:21:16;5.80;59.30
25871;DHT22;13689;48.590;7.752;2023-03-12T03:23:44;5.90;59.50
25871;DHT22;13689;48.590;7.752;2023-03-12T03:26:10;5.90;59.60
25871;DHT22;13689;48.590;7.752;2023-03-12T03:28:36;5.90;59.70
25871;DHT22;13689;48.590;7.752;2023-03-12T03:31:02;5.80;59.80
25871;DHT22;13689;48.590;7.752;2023-03-12T03:33:30;5.80;59.90
25871;DHT22;13689;48.590;7.752;2023-03-12T03:35:57;5.80;60.10
25871;DHT22;13689;48.590;7.752;2023-03-12T03:38:24;5.90;60.20
25871;DHT22;13689;48.590;7.752;2023-03-12T03:40:51;5.90;60.20
25871;DHT22;13689;48.590;7.752;2023-03-12T03:43:17;5.90;60.30
25871;DHT22;13689;48.590;7.752;2023-03-12T03:45:42;5.90;60.50
25871;DHT22;13689;48.590;7.752;2023-03-12T03:48:10;5.90;60.70
25871;DHT22;13689;48.590;7.752;2023-03-12T03:50:37;5.90;60.90
25871;DHT22;13689;48.590;7.752;2023-03-12T03:53:03;5.90;61.10
25871;DHT22;13689;48.590;7.752;2023-03-12T03:55:29;5.90;61.50
25871;DHT22;13689;48.590;7.752;2023-03-12T03:57:55;5.90;61.80
25871;DHT22;13689;48.590;7.752;2023-03-12T04:00:20;5.90;61.90
25871;DHT22;13689;48.590;7.752;2023-03-12T04:02:46;5.90;62.20
25871;DHT22;13689;48.590;7.752;2023-03-12T04:05:12;5.90;62.30
25871;DHT22;13689;48.590;7.752;2023-03-12T04:07:37;5.90;62.50
25871;DHT22;13689;48.590;7.752;2023-03-12T04:10:04;5.90;62.70
25871;DHT22;13689;48.590;7.752;2023-03-12T04:12:29;5.90;62.90
25871;DHT22;13689;48.590;7.752;2023-03-12T04:14:55;5.90;63.20
25871;DHT22;13689;48.590;7.752;2023-03-12T04:17:21;5.90;63.50
25871;DHT22;13689;48.590;7.752;2023-03-12T04:19:47;5.90;63.50
25871;DHT22;13689;48.590;7.752;2023-03-12T04:22:12;5.90;63.60
25871;DHT22;13689;48.590;7.752;2023-03-12T04:24:38;5.90;63.60
25871;DHT22;13689;48.590;7.752;2023-03-12T04:27:04;6.00;63.80
25871;DHT22;13689;48.590;7.752;2023-03-12T04:29:30;6.00;63.80
25871;DHT22;13689;48.590;7.752;2023-03-12T04:31:55;6.00;63.80
25871;DHT22;13689;48.590;7.752;2023-03-12T04:34:21;6.10;64.00
25871;DHT22;13689;48.590;7.752;2023-03-12T04:36:46;6.10;64.30
25871;DHT22;13689;48.590;7.752;2023-03-12T04:39:15;6.00;64.60
25871;DHT22;13689;48.590;7.752;2023-03-12T04:41:41;6.00;64.90
25871;DHT22;13689;48.590;7.752;2023-03-12T04:44:06;6.00;65.20
25871;DHT22;13689;48.590;7.752;2023-03-12T04:46:32;6.00;65.50
25871;DHT22;13689;48.590;7.752;2023-03-12T04:48:58;6.00;65.90
25871;DHT22;13689;48.590;7.752;2023-03-12T04:51:39;5.90;66.30
25871;DHT22;13689;48.590;7.752;2023-03-12T04:54:05;5.90;66.80
25871;DHT22;13689;48.590;7.752;2023-03-12T04:56:31;5.80;67.50
25871;DHT22;13689;48.590;7.752;2023-03-12T04:58:56;5.80;67.90
25871;DHT22;13689;48.590;7.752;2023-03-12T05:01:23;5.80;68.20
25871;DHT22;13689;48.590;7.752;2023-03-12T05:03:50;5.70;68.30
25871;DHT22;13689;48.590;7.752;2023-03-12T05:06:15;5.70;68.80
25871;DHT22;13689;48.590;7.752;2023-03-12T05:08:41;5.70;69.00
25871;DHT22;13689;48.590;7.752;2023-03-12T05:11:07;5.70;69.30
25871;DHT22;13689;48.590;7.752;2023-03-12T05:13:33;5.70;69.50
25871;DHT22;13689;48.590;7.752;2023-03-12T05:15:58;5.80;69.70
25871;DHT22;13689;48.590;7.752;2023-03-12T05:18:24;5.80;69.90
25871;DHT22;13689;48.590;7.752;2023-03-12T05:21:01;5.90;69.90
25871;DHT22;13689;48.590;7.752;2023-03-12T05:23:28;5.80;69.80
25871;DHT22;13689;48.590;7.752;2023-03-12T05:25:54;5.80;70.00
25871;DHT22;13689;48.590;7.752;2023-03-12T05:28:19;5.90;70.20
25871;DHT22;13689;48.590;7.752;2023-03-12T05:30:46;5.90;70.20
25871;DHT22;13689;48.590;7.752;2023-03-12T05:33:11;5.90;70.20
25871;DHT22;13689;48.590;7.752;2023-03-12T05:35:37;5.90;70.30
25871;DHT22;13689;48.590;7.752;2023-03-12T05:38:03;5.90;70.20
25871;DHT22;13689;48.590;7.752;2023-03-12T05:40:29;5.90;70.30
25871;DHT22;13689;48.590;7.752;2023-03-12T05:42:55;6.00;70.40
25871;DHT22;13689;48.590;7.752;2023-03-12T05:45:21;6.00;70.50
25871;DHT22;13689;48.590;7.752;2023-03-12T05:47:46;6.00;70.50
25871;DHT22;13689;48.590;7.752;2023-03-12T05:50:12;6.00;70.50
25871;DHT22;13689;48.590;7.752;2023-03-12T05:52:40;6.00;70.40
25871;DHT22;13689;48.590;7.752;2023-03-12T05:55:06;6.00;70.50
25871;DHT22;13689;48.590;7.752;2023-03-12T05:57:32;6.00;70.50
25871;DHT22;13689;48.590;7.752;2023-03-12T05:59:58;6.00;70.60
25871;DHT22;13689;48.590;7.752;2023-03-12T06:02:23;6.00;70.50
25871;DHT22;13689;48.590;7.752;2023-03-12T06:04:49;6.00;70.80
25871;DHT22;13689;48.590;7.752;2023-03-12T06:07:15;6.00;70.80
25871;DHT22;13689;48.590;7.752;2023-03-12T06:09:40;6.00;70.90
25871;DHT22;13689;48.590;7.752;2023-03-12T06:12:07;6.00;71.10
25871;DHT22;13689;48.590;7.752;2023-03-12T06:14:33;6.00;71.10
25871;DHT22;13689;48.590;7.752;2023-03-12T06:16:59;6.00;71.10
25871;DHT22;13689;48.590;7.752;2023-03-12T06:19:24;6.00;71.20
25871;DHT22;13689;48.590;7.752;2023-03-12T06:21:50;6.10;71.30
25871;DHT22;13689;48.590;7.752;2023-03-12T06:24:16;6.10;71.30
25871;DHT22;13689;48.590;7.752;2023-03-12T06:26:41;6.10;71.40
25871;DHT22;13689;48.590;7.752;2023-03-12T06:29:07;6.20;71.60
25871;DHT22;13689;48.590;7.752;2023-03-12T06:31:33;6.20;71.70
25871;DHT22;13689;48.590;7.752;2023-03-12T06:33:58;6.10;71.40
25871;DHT22;13689;48.590;7.752;2023-03-12T06:36:24;6.10;71.70
25871;DHT22;13689;48.590;7.752;2023-03-12T06:38:50;6.10;71.90
25871;DHT22;13689;48.590;7.752;2023-03-12T06:41:17;6.30;72.30
25871;DHT22;13689;48.590;7.752;2023-03-12T06:43:44;6.50;72.40
25871;DHT22;13689;48.590;7.752;2023-03-12T06:46:15;6.60;72.30
25871;DHT22;13689;48.590;7.752;2023-03-12T06:48:42;6.70;72.40
25871;DHT22;13689;48.590;7.752;2023-03-12T06:51:09;6.60;72.40
25871;DHT22;13689;48.590;7.752;2023-03-12T06:53:35;6.50;72.70
25871;DHT22;13689;48.590;7.752;2023-03-12T06:56:01;6.50;72.90
25871;DHT22;13689;48.590;7.752;2023-03-12T06:58:27;6.50;73.10
25871;DHT22;13689;48.590;7.752;2023-03-12T07:00:53;6.50;73.10
25871;DHT22;13689;48.590;7.752;2023-03-12T07:03:19;6.60;73.50
25871;DHT22;13689;48.590;7.752;2023-03-12T07:05:46;6.60;73.60
25871;DHT22;13689;48.590;7.752;2023-03-12T07:08:13;6.60;73.60
25871;DHT22;13689;48.590;7.752;2023-03-12T07:10:39;6.70;73.80
25871;DHT22;13689;48.590;7.752;2023-03-12T07:13:05;6.70;74.10
25871;DHT22;13689;48.590;7.752;2023-03-12T07:15:30;6.70;74.40
25871;DHT22;13689;48.590;7.752;2023-03-12T07:18:00;6.70;74.50
25871;DHT22;13689;48.590;7.752;2023-03-12T07:20:28;6.70;74.90
25871;DHT22;13689;48.590;7.752;2023-03-12T07:22:53;6.80;75.00
25871;DHT22;13689;48.590;7.752;2023-03-12T07:25:19;6.90;75.10
25871;DHT22;13689;48.590;7.752;2023-03-12T07:27:44;6.90;75.30
25871;DHT22;13689;48.590;7.752;2023-03-12T07:30:10;6.90;75.60
25871;DHT22;13689;48.590;7.752;2023-03-12T07:32:36;6.90;76.00
25871;DHT22;13689;48.590;7.752;2023-03-12T07:35:03;6.90;76.30
25871;DHT22;13689;48.590;7.752;2023-03-12T07:37:29;7.00;76.70
25871;DHT22;13689;48.590;7.752;2023-03-12T07:39:54;7.00;77.20
25871;DHT22;13689;48.590;7.752;2023-03-12T07:42:20;7.00;77.70
25871;DHT22;13689;48.590;7.752;2023-03-12T07:44:46;7.00;78.20
25871;DHT22;13689;48.590;7.752;2023-03-12T07:47:11;7.00;78.60
25871;DHT22;13689;48.590;7.752;2023-03-12T07:49:37;6.90;79.20
25871;DHT22;13689;48.590;7.752;2023-03-12T07:52:07;6.90;79.70
25871;DHT22;13689;48.590;7.752;2023-03-12T07:54:37;6.90;80.00
25871;DHT22;13689;48.590;7.752;2023-03-12T07:57:04;6.90;80.50
25871;DHT22;13689;48.590;7.752;2023-03-12T07:59:30;6.80;80.80
25871;DHT22;13689;48.590;7.752;2023-03-12T08:01:56;6.90;81.40
25871;DHT22;13689;48.590;7.752;2023-03-12T08:04:21;6.90;81.90
25871;DHT22;13689;48.590;7.752;2023-03-12T08:06:48;6.90;82.30
25871;DHT22;13689;48.590;7.752;2023-03-12T08:09:13;6.90;82.80
25871;DHT22;13689;48.590;7.752;2023-03-12T08:11:39;7.00;83.00
25871;DHT22;13689;48.590;7.752;2023-03-12T08:14:05;7.00;83.10
25871;DHT22;13689;48.590;7.752;2023-03-12T08:16:31;7.10;83.00
25871;DHT22;13689;48.590;7.752;2023-03-12T08:18:57;7.10;82.90
25871;DHT22;13689;48.590;7.752;2023-03-12T08:21:23;7.20;82.90
25871;DHT22;13689;48.590;7.752;2023-03-12T08:23:49;7.30;82.90
25871;DHT22;13689;48.590;7.752;2023-03-12T08:26:15;7.40;82.90
25871;DHT22;13689;48.590;7.752;2023-03-12T08:28:40;7.50;82.80
25871;DHT22;13689;48.590;7.752;2023-03-12T08:31:06;7.50;82.70
25871;DHT22;13689;48.590;7.752;2023-03-12T08:33:34;7.70;82.70
25871;DHT22;13689;48.590;7.752;2023-03-12T08:35:59;7.70;82.70
25871;DHT22;13689;48.590;7.752;2023-03-12T08:38:28;7.80;82.70
25871;DHT22;13689;48.590;7.752;2023-03-12T08:40:56;7.80;82.60
25871;DHT22;13689;48.590;7.752;2023-03-12T08:43:22;7.90;82.60
25871;DHT22;13689;48.590;7.752;2023-03-12T08:45:53;8.00;82.60
25871;DHT22;13689;48.590;7.752;2023-03-12T08:48:18;8.30;82.50
25871;DHT22;13689;48.590;7.752;2023-03-12T08:50:44;8.60;82.30
25871;DHT22;13689;48.590;7.752;2023-03-12T08:53:10;8.80;82.10
25871;DHT22;13689;48.590;7.752;2023-03-12T08:55:36;8.90;81.80
25871;DHT22;13689;48.590;7.752;2023-03-12T08:58:03;9.00;81.50
25871;DHT22;13689;48.590;7.752;2023-03-12T09:00:29;9.30;81.50
25871;DHT22;13689;48.590;7.752;2023-03-12T09:02:55;10.20;81.40
25871;DHT22;13689;48.590;7.752;2023-03-12T09:05:23;11.30;80.60
25871;DHT22;13689;48.590;7.752;2023-03-12T09:07:49;12.20;78.80
25871;DHT22;13689;48.590;7.752;2023-03-12T09:10:21;13.50;77.00
25871;DHT22;13689;48.590;7.752;2023-03-12T09:12:47;14.40;74.20
25871;DHT22;13689;48.590;7.752;2023-03-12T09:15:14;14.30;72.30
25871;DHT22;13689;48.590;7.752;2023-03-12T09:17:40;14.20;72.00
25871;DHT22;13689;48.590;7.752;2023-03-12T09:20:07;13.60;72.00
25871;DHT22;13689;48.590;7.752;2023-03-12T09:22:35;13.40;72.50
25871;DHT22;13689;48.590;7.752;2023-03-12T09:25:05;14.60;72.30
25871;DHT22;13689;48.590;7.752;2023-03-12T09:27:38;15.20;69.90
25871;DHT22;13689;48.590;7.752;2023-03-12T09:30:05;15.30;68.40
25871;DHT22;13689;48.590;7.752;2023-03-12T09:32:31;15.10;68.40
25871;DHT22;13689;48.590;7.752;2023-03-12T09:34:57;14.70;68.60
25871;DHT22;13689;48.590;7.752;2023-03-12T09:37:23;14.50;68.80
25871;DHT22;13689;48.590;7.752;2023-03-12T09:39:49;15.30;68.90
25871;DHT22;13689;48.590;7.752;2023-03-12T09:42:37;16.10;67.70
25871;DHT22;13689;48.590;7.752;2023-03-12T09:45:06;17.50;65.60
25871;DHT22;13689;48.590;7.752;2023-03-12T09:47:47;18.50;62.30
25871;DHT22;13689;48.590;7.752;2023-03-12T09:50:31;19.20;59.80
25871;DHT22;13689;48.590;7.752;2023-03-12T09:52:58;19.30;59.20
25871;DHT22;13689;48.590;7.752;2023-03-12T09:55:27;18.60;58.90
25871;DHT22;13689;48.590;7.752;2023-03-12T09:57:57;17.50;59.90
25871;DHT22;13689;48.590;7.752;2023-03-12T10:00:28;16.70;61.20
25871;DHT22;13689;48.590;7.752;2023-03-12T10:05:46;15.80;63.10
25871;DHT22;13689;48.590;7.752;2023-03-12T10:08:38;15.40;64.10
25871;DHT22;13689;48.590;7.752;2023-03-12T10:22:57;15.30;65.00
25871;DHT22;13689;48.590;7.752;2023-03-12T10:25:54;15.30;65.50
25871;DHT22;13689;48.590;7.752;2023-03-12T10:28:42;15.00;64.70
25871;DHT22;13689;48.590;7.752;2023-03-12T10:31:19;15.30;65.00
25871;DHT22;13689;48.590;7.752;2023-03-12T10:33:50;15.50;63.90
25871;DHT22;13689;48.590;7.752;2023-03-12T10:36:21;15.30;63.90
25871;DHT22;13689;48.590;7.752;2023-03-12T10:38:49;14.90;63.80
25871;DHT22;13689;48.590;7.752;2023-03-12T10:41:18;14.60;64.10
25871;DHT22;13689;48.590;7.752;2023-03-12T10:43:45;14.30;64.50
25871;DHT22;13689;48.590;7.752;2023-03-12T10:48:39;14.00;65.20
25871;DHT22;13689;48.590;7.752;2023-03-12T10:51:10;14.00;65.20
25871;DHT22;13689;48.590;7.752;2023-03-12T10:53:43;14.00;65.00
25871;DHT22;13689;48.590;7.752;2023-03-12T10:56:19;13.90;64.90
25871;DHT22;13689;48.590;7.752;2023-03-12T10:58:47;13.80;65.00
25871;DHT22;13689;48.590;7.752;2023-03-12T11:03:39;13.50;65.20
25871;DHT22;13689;48.590;7.752;2023-03-12T11:06:07;13.40;65.80
25871;DHT22;13689;48.590;7.752;2023-03-12T11:08:37;13.40;66.30
25871;DHT22;13689;48.590;7.752;2023-03-12T11:11:03;13.30;66.50
25871;DHT22;13689;48.590;7.752;2023-03-12T11:13:40;13.30;67.00
25871;DHT22;13689;48.590;7.752;2023-03-12T11:18:59;13.20;67.40
25871;DHT22;13689;48.590;7.752;2023-03-12T11:21:27;13.30;67.50
25871;DHT22;13689;48.590;7.752;2023-03-12T11:24:04;13.30;67.50
25871;DHT22;13689;48.590;7.752;2023-03-12T11:31:43;13.40;67.60
25871;DHT22;13689;48.590;7.752;2023-03-12T11:34:21;13.40;67.60
25871;DHT22;13689;48.590;7.752;2023-03-12T11:37:10;13.30;67.70
25871;DHT22;13689;48.590;7.752;2023-03-12T11:51:24;13.60;67.10
25871;DHT22;13689;48.590;7.752;2023-03-12T11:54:14;13.70;66.80
25871;DHT22;13689;48.590;7.752;2023-03-12T11:56:53;13.80;66.90
25871;DHT22;13689;48.590;7.752;2023-03-12T12:09:55;13.70;66.70
25871;DHT22;13689;48.590;7.752;2023-03-12T12:12:34;13.70;66.50
25871;DHT22;13689;48.590;7.752;2023-03-12T12:20:47;13.80;66.00
25871;DHT22;13689;48.590;7.752;2023-03-12T12:23:40;13.70;65.80
25871;DHT22;13689;48.590;7.752;2023-03-12T12:26:11;13.60;66.00
25871;DHT22;13689;48.590;7.752;2023-03-12T12:31:58;13.60;65.90
25871;DHT22;13689;48.590;7.752;2023-03-12T12:37:35;13.50;65.80
25871;DHT22;13689;48.590;7.752;2023-03-12T12:42:45;13.60;65.10
25871;DHT22;13689;48.590;7.752;2023-03-12T12:45:14;13.70;64.90
25871;DHT22;13689;48.590;7.752;2023-03-12T12:47:50;13.70;64.60
25871;DHT22;13689;48.590;7.752;2023-03-12T12:50:20;13.70;64.40
25871;DHT22;13689;48.590;7.752;2023-03-12T12:56:07;13.90;64.20
25871;DHT22;13689;48.590;7.752;2023-03-12T12:59:14;14.00;63.60
25871;DHT22;13689;48.590;7.752;2023-03-12T13:01:34;14.00;63.20
25871;DHT22;13689;48.590;7.752;2023-03-12T13:04:09;14.00;62.90
25871;DHT22;13689;48.590;7.752;2023-03-12T13:07:30;14.10;62.50
25871;DHT22;13689;48.590;7.752;2023-03-12T13:09:56;14.10;62.30
25871;DHT22;13689;48.590;7.752;2023-03-12T13:12:32;14.20;61.70
25871;DHT22;13689;48.590;7.752;2023-03-12T13:15:01;14.30;61.30
25871;DHT22;13689;48.590;7.752;2023-03-12T13:17:34;14.30;60.90
25871;DHT22;13689;48.590;7.752;2023-03-12T13:20:11;14.30;60.70
25871;DHT22;13689;48.590;7.752;2023-03-12T13:28:29;14.20;60.10
25871;DHT22;13689;48.590;7.752;2023-03-12T13:30:59;14.10;60.10
25871;DHT22;13689;48.590;7.752;2023-03-12T13:33:39;14.00;60.10
25871;DHT22;13689;48.590;7.752;2023-03-12T13:39:20;13.90;60.20
25871;DHT22;13689;48.590;7.752;2023-03-12T13:42:26;14.00;60.00
25871;DHT22;13689;48.590;7.752;2023-03-12T13:45:23;14.10;59.70
25871;DHT22;13689;48.590;7.752;2023-03-12T13:47:52;14.20;59.20
25871;DHT22;13689;48.590;7.752;2023-03-12T13:50:19;14.40;58.80
25871;DHT22;13689;48.590;7.752;2023-03-12T13:52:48;14.50;58.00
25871;DHT22;13689;48.590;7.752;2023-03-12T13:55:27;14.70;57.40
25871;DHT22;13689;48.590;7.752;2023-03-12T13:58:08;14.60;56.80
25871;DHT22;13689;48.590;7.752;2023-03-12T14:00:59;14.50;56.40
25871;DHT22;13689;48.590;7.752;2023-03-12T14:03:33;14.40;56.60
25871;DHT22;13689;48.590;7.752;2023-03-12T14:06:13;14.40;56.40
25871;DHT22;13689;48.590;7.752;2023-03-12T14:11:48;14.60;56.10
25871;DHT22;13689;48.590;7.752;2023-03-12T14:17:02;14.60;56.00
25871;DHT22;13689;48.590;7.752;2023-03-12T14:19:33;14.70;56.50
25871;DHT22;13689;48.590;7.752;2023-03-12T14:22:02;14.80;57.00
25871;DHT22;13689;48.590;7.752;2023-03-12T14:24:36;14.80;56.80
25871;DHT22;13689;48.590;7.752;2023-03-12T14:27:05;14.80;56.60
25871;DHT22;13689;48.590;7.752;2023-03-12T14:32:26;14.70;56.20
25871;DHT22;13689;48.590;7.752;2023-03-12T14:38:01;14.60;56.30
25871;DHT22;13689;48.590;7.752;2023-03-12T14:40:54;14.50;56.90
25871;DHT22;13689;48.590;7.752;2023-03-12T14:43:24;14.50;56.40
25871;DHT22;13689;48.590;7.752;2023-03-12T14:46:05;14.50;56.30
25871;DHT22;13689;48.590;7.752;2023-03-12T14:48:35;14.50;56.30
25871;DHT22;13689;48.590;7.752;2023-03-12T14:51:04;14.40;56.40
25871;DHT22;13689;48.590;7.752;2023-03-12T14:53:35;14.40;56.40
25871;DHT22;13689;48.590;7.752;2023-03-12T14:56:03;14.40;56.40
25871;DHT22;13689;48.590;7.752;2023-03-12T14:58:33;14.40;56.50
25871;DHT22;13689;48.590;7.752;2023-03-12T15:01:10;14.30;56.30
25871;DHT22;13689;48.590;7.752;2023-03-12T15:03:42;14.30;56.30
25871;DHT22;13689;48.590;7.752;2023-03-12T15:06:23;14.30;56.30
25871;DHT22;13689;48.590;7.752;2023-03-12T15:08:52;14.20;56.40
25871;DHT22;13689;48.590;7.752;2023-03-12T15:11:22;14.20;56.50
25871;DHT22;13689;48.590;7.752;2023-03-12T15:13:50;14.20;56.60
25871;DHT22;13689;48.590;7.752;2023-03-12T15:16:17;14.30;56.70
25871;DHT22;13689;48.590;7.752;2023-03-12T15:18:43;14.30;56.70
25871;DHT22;13689;48.590;7.752;2023-03-12T15:21:11;14.30;56.70
25871;DHT22;13689;48.590;7.752;2023-03-12T15:23:38;14.40;56.80
25871;DHT22;13689;48.590;7.752;2023-03-12T15:29:19;14.40;56.70
25871;DHT22;13689;48.590;7.752;2023-03-12T15:31:55;14.30;56.80
25871;DHT22;13689;48.590;7.752;2023-03-12T15:34:36;14.40;57.00
25871;DHT22;13689;48.590;7.752;2023-03-12T15:37:20;14.30;57.00
25871;DHT22;13689;48.590;7.752;2023-03-12T15:39:54;14.30;57.10
25871;DHT22;13689;48.590;7.752;2023-03-12T15:42:24;14.30;57.20
25871;DHT22;13689;48.590;7.752;2023-03-12T15:44:57;14.30;57.10
25871;DHT22;13689;48.590;7.752;2023-03-12T15:47:31;14.30;57.10
25871;DHT22;13689;48.590;7.752;2023-03-12T15:50:20;14.40;57.10
25871;DHT22;13689;48.590;7.752;2023-03-12T15:53:05;14.40;56.90
25871;DHT22;13689;48.590;7.752;2023-03-12T15:55:34;14.30;56.80
25871;DHT22;13689;48.590;7.752;2023-03-12T15:58:00;14.30;56.70
25871;DHT22;13689;48.590;7.752;2023-03-12T16:00:30;14.30;56.70
25871;DHT22;13689;48.590;7.752;2023-03-12T16:03:00;14.20;56.60
25871;DHT22;13689;48.590;7.752;2023-03-12T16:05:34;14.10;56.70
25871;DHT22;13689;48.590;7.752;2023-03-12T16:08:19;14.10;56.70
25871;DHT22;13689;48.590;7.752;2023-03-12T16:10:46;14.10;56.80
25871;DHT22;13689;48.590;7.752;2023-03-12T16:13:18;14.10;56.90
25871;DHT22;13689;48.590;7.752;2023-03-12T16:15:44;14.10;56.90
25871;DHT22;13689;48.590;7.752;2023-03-12T16:18:18;14.10;57.00
25871;DHT22;13689;48.590;7.752;2023-03-12T16:20:45;14.10;57.10
25871;DHT22;13689;48.590;7.752;2023-03-12T16:23:11;14.10;57.20
25871;DHT22;13689;48.590;7.752;2023-03-12T16:25:37;14.00;57.30
25871;DHT22;13689;48.590;7.752;2023-03-12T16:28:05;14.00;57.40
25871;DHT22;13689;48.590;7.752;2023-03-12T16:30:35;14.00;57.50
25871;DHT22;13689;48.590;7.752;2023-03-12T16:33:03;13.90;57.60
25871;DHT22;13689;48.590;7.752;2023-03-12T16:35:29;13.90;57.70
25871;DHT22;13689;48.590;7.752;2023-03-12T16:38:02;13.90;57.80
25871;DHT22;13689;48.590;7.752;2023-03-12T16:40:33;13.90;57.90
25871;DHT22;13689;48.590;7.752;2023-03-12T16:43:10;13.90;57.90
25871;DHT22;13689;48.590;7.752;2023-03-12T16:45:42;13.90;58.00
25871;DHT22;13689;48.590;7.752;2023-03-12T16:48:14;13.90;58.00
25871;DHT22;13689;48.590;7.752;2023-03-12T16:50:43;13.80;58.20
25871;DHT22;13689;48.590;7.752;2023-03-12T16:53:10;13.80;58.20
25871;DHT22;13689;48.590;7.752;2023-03-12T16:55:47;13.80;58.30
25871;DHT22;13689;48.590;7.752;2023-03-12T16:58:15;13.80;58.40
25871;DHT22;13689;48.590;7.752;2023-03-12T17:00:45;13.70;58.40
25871;DHT22;13689;48.590;7.752;2023-03-12T17:03:17;13.70;58.60
25871;DHT22;13689;48.590;7.752;2023-03-12T17:05:43;13.70;58.60
25871;DHT22;13689;48.590;7.752;2023-03-12T17:11:51;13.70;58.70
25871;DHT22;13689;48.590;7.752;2023-03-12T17:14:19;13.70;58.70
25871;DHT22;13689;48.590;7.752;2023-03-12T17:16:46;13.70;58.80
25871;DHT22;13689;48.590;7.752;2023-03-12T17:19:13;13.60;58.80
25871;DHT22;13689;48.590;7.752;2023-03-12T17:21:39;13.60;58.90
25871;DHT22;13689;48.590;7.752;2023-03-12T17:24:36;13.60;58.90
25871;DHT22;13689;48.590;7.752;2023-03-12T17:27:02;13.60;59.10
25871;DHT22;13689;48.590;7.752;2023-03-12T17:29:27;13.60;59.20
25871;DHT22;13689;48.590;7.752;2023-03-12T17:31:56;13.50;59.40